KEST/EST METAR and TAF weather

Enter ICAO airport designator
Station Type Date Time Source
KEST METAR 2022/11/30 10:52 UTC NOAA

KEST 301052Z AUTO 29022G29KT 9SM CLR M09/M13 A2999 RMK AO2 PK WND 29030/1017 SLP179 T10941133 $


Station Type Date Time Source
KEST Decoded METAR 2022/11/30 10:52 UTC NOAA

ESTHERVILLE MUNICIPAL AIRPORT , IA, United States (KEST) 43-24N 94-45W 401M
Nov 30, 2022 - 05:52 AM EST / 2022.11.30 1052 UTC
Wind: from the WNW (290 degrees) at 25 MPH (22 KT) gusting to 33 MPH (29 KT):0
Visibility: 9 mile(s):0
Sky conditions: clear
Temperature: 15.1 F (-9.4 C)
Windchill: -4 F (-20 C):1
Dew Point: 8.1 F (-13.3 C)
Relative Humidity: 73%
Pressure (altimeter): 29.99 in. Hg (1015 hPa)
ob: KEST 301052Z AUTO 29022G29KT 9SM CLR M09/M13 A2999 RMK AO2 PK WND 29030/1017 SLP179 T10941133
cycle: 11

Station Type Date Time Source
KEST TAF UTC NOAA

Error!

Example: see airport list